Time;durP1;ratioP1;P1;durP2;ratioP2;P2;SDS_P1;SDS_P2;PMS_P1;PMS_P2;Temp;Humidity;BMP_temperature;BMP_pressure;BME280_temperature;BME280_humidity;BME280_pressure;Samples;Min_cycle;Max_cycle;Signal;HPM_P1;HPM_P2
2023/08/04 00:13:09;;;;;;;4.30;1.40;;;;;;;26.42;57.32;99242.52;682527;1264;138193;-76
2023/08/04 00:28:14;;;;;;;4.70;1.30;;;;;;;26.11;57.85;99245.70;682352;1264;138461;-75
2023/08/04 00:43:18;;;;;;;4.80;1.20;;;;;;;26.10;57.94;99265.05;682559;1275;138356;-75
2023/08/04 00:58:22;;;;;;;5.20;1.70;;;;;;;25.65;59.32;99281.80;682338;1259;137909;-77
2023/08/04 01:13:29;;;;;;;2.80;1.20;;;;;;;25.57;59.93;99308.52;682525;1261;138300;-77
2023/08/04 01:28:34;;;;;;;4.90;1.20;;;;;;;25.57;59.90;99317.88;682098;1263;139447;-76
2023/08/04 01:43:38;;;;;;;3.20;1.20;;;;;;;25.47;60.12;99319.42;681692;1262;138190;-75
2023/08/04 01:58:41;;;;;;;4.10;1.20;;;;;;;24.89;61.56;99333.54;681537;1263;140018;-76
2023/08/04 02:13:44;;;;;;;8.20;1.50;;;;;;;24.67;62.51;99342.73;681872;1262;140021;-76
2023/08/04 02:28:50;;;;;;;2.80;1.20;;;;;;;24.46;63.37;99355.88;681889;1262;139214;-75
2023/08/04 02:43:53;;;;;;;4.70;1.50;;;;;;;24.33;63.27;99369.17;681757;1263;138299;-76
2023/08/04 02:58:56;;;;;;;4.50;2.80;;;;;;;23.81;65.43;99391.29;681754;1262;140049;-75
2023/08/04 03:13:59;;;;;;;3.80;2.40;;;;;;;23.97;64.54;99396.09;681686;1265;141912;-75
2023/08/04 03:29:03;;;;;;;5.90;2.10;;;;;;;23.98;64.63;99408.06;681536;1262;140128;-75
2023/08/04 03:44:07;;;;;;;2.70;1.50;;;;;;;24.12;64.12;99413.58;681777;1260;140008;-76
2023/08/04 03:59:12;;;;;;;3.10;2.80;;;;;;;23.81;65.54;99438.95;681485;1275;139753;-76
2023/08/04 04:14:16;;;;;;;4.00;2.70;;;;;;;23.83;66.66;99467.54;681483;1262;139735;-76
2023/08/04 04:29:19;;;;;;;3.50;1.70;;;;;;;23.63;67.90;99476.34;681312;1262;138849;-77
2023/08/04 04:44:23;;;;;;;4.10;1.60;;;;;;;23.43;69.91;99482.71;681376;1262;138644;-76
2023/08/04 04:59:26;;;;;;;2.70;1.70;;;;;;;22.64;73.88;99486.11;681237;1260;139958;-78
2023/08/04 05:14:30;;;;;;;3.00;1.60;;;;;;;22.91;74.40;99503.31;681354;1259;139674;-75
2023/08/04 05:29:33;;;;;;;3.20;1.30;;;;;;;23.78;72.72;99502.08;682044;1265;138405;-76
2023/08/04 05:44:37;;;;;;;6.80;2.00;;;;;;;24.90;69.90;99507.07;681793;1265;138564;-76
2023/08/04 05:59:40;;;;;;;3.60;1.20;;;;;;;27.91;62.78;99524.48;682017;1274;137891;-77
2023/08/04 06:14:45;;;;;;;6.80;1.40;;;;;;;29.15;58.05;99533.44;681529;1260;138933;-77
2023/08/04 06:29:49;;;;;;;2.30;1.10;;;;;;;29.69;56.47;99555.21;681850;1265;137916;-77
2023/08/04 06:44:52;;;;;;;1.80;1.10;;;;;;;30.04;55.99;99577.80;681646;1265;138272;-78
2023/08/04 07:00:04;;;;;;;2.00;1.00;;;;;;;30.42;56.00;99586.38;681781;1265;137399;-77
2023/08/04 07:26:35;;;;;;;3.00;1.40;;;;;;;31.25;54.63;99600.69;651844;1301;2416339;-77
2023/08/04 07:41:41;;;;;;;3.30;1.10;;;;;;;30.20;56.58;99609.13;669299;1270;136734;-76
2023/08/04 07:56:48;;;;;;;5.00;2.20;;;;;;;30.18;56.39;99624.98;668610;1276;137789;-79
2023/08/04 08:11:56;;;;;;;2.60;1.00;;;;;;;30.62;55.62;99641.21;671644;1264;137087;-76
2023/08/04 08:27:01;;;;;;;2.30;1.10;;;;;;;30.15;56.03;99647.70;671487;1267;137274;-78
2023/08/04 08:42:07;;;;;;;3.10;1.30;;;;;;;29.91;56.60;99666.27;670157;1273;137016;-76
2023/08/04 08:57:12;;;;;;;5.90;1.30;;;;;;;29.74;57.11;99678.09;673418;1265;138085;-76
2023/08/04 09:12:20;;;;;;;5.20;2.00;;;;;;;29.21;57.78;99697.85;672073;1266;137849;-76
2023/08/04 09:27:29;;;;;;;2.20;1.20;;;;;;;28.97;59.04;99709.39;672330;1260;137780;-77
2023/08/04 09:42:39;;;;;;;3.30;1.10;;;;;;;29.90;57.14;99713.08;669111;1263;138030;-75
2023/08/04 09:57:46;;;;;;;4.30;1.80;;;;;;;29.44;56.90;99723.63;669253;1265;137757;-77
2023/08/04 10:13:03;;;;;;;4.00;1.00;;;;;;;28.65;58.68;99737.09;671683;1265;138403;-75
2023/08/04 10:28:07;;;;;;;3.50;1.20;;;;;;;28.73;58.61;99749.61;672255;1265;138037;-76
2023/08/04 10:43:12;;;;;;;4.70;1.90;;;;;;;28.31;60.30;99764.52;675234;1262;138543;-79
2023/08/04 10:58:19;;;;;;;2.50;1.40;;;;;;;28.31;60.71;99780.00;677282;1262;138036;-77
2023/08/04 11:13:28;;;;;;;2.00;1.10;;;;;;;29.59;58.17;99790.27;675859;1266;137852;-79
2023/08/04 11:28:35;;;;;;;3.70;1.60;;;;;;;29.67;57.12;99799.27;676067;1260;137584;-77
2023/08/04 11:43:39;;;;;;;1.60;1.20;;;;;;;29.54;57.39;99808.48;673550;1265;137735;-78
2023/08/04 11:59:12;;;;;;;4.70;1.20;;;;;;;30.61;56.22;99805.27;674374;1260;138184;-77
2023/08/04 12:14:20;;;;;;;3.20;1.50;;;;;;;30.79;54.04;99816.17;673887;1275;137482;-76
2023/08/04 12:29:28;;;;;;;;;;;;;;;30.24;55.35;99835.08;672753;1261;137579;-76
2023/08/04 12:44:33;;;;;;;1.70;1.30;;;;;;;30.17;55.14;99830.89;678643;1265;126856;-76
2023/08/04 12:59:37;;;;;;;6.20;1.70;;;;;;;30.92;53.49;99841.29;680646;1260;138916;-75
2023/08/04 13:14:41;;;;;;;3.80;1.60;;;;;;;30.59;54.90;99864.58;680846;1276;139115;-77
2023/08/04 13:29:47;;;;;;;3.80;2.20;;;;;;;29.58;55.78;99869.33;680544;1264;138947;-75
2023/08/04 13:44:51;;;;;;;2.10;1.70;;;;;;;29.54;56.52;99867.95;679961;1263;138347;-75
2023/08/04 13:59:55;;;;;;;4.80;2.40;;;;;;;29.82;55.06;99868.34;680450;1260;139011;-76
2023/08/04 14:14:59;;;;;;;5.70;2.30;;;;;;;29.76;55.76;99883.54;679720;1260;139432;-76
2023/08/04 14:30:03;;;;;;;4.60;2.10;;;;;;;29.54;56.03;99894.46;677547;1261;140350;-77
2023/08/04 14:45:08;;;;;;;3.60;1.90;;;;;;;29.71;56.19;99924.98;681401;1260;139447;-76
2023/08/04 15:00:13;;;;;;;2.20;1.90;;;;;;;29.49;56.76;99944.18;681540;1264;137935;-77
2023/08/04 15:15:17;;;;;;;2.80;2.10;;;;;;;29.64;57.07;99947.16;681848;1261;138309;-75
2023/08/04 15:30:21;;;;;;;5.00;2.40;;;;;;;29.34;56.54;99940.71;681718;1266;138654;-76
2023/08/04 15:45:25;;;;;;;5.30;3.10;;;;;;;29.43;56.55;99937.70;681750;1264;138537;-77
2023/08/04 16:00:29;;;;;;;5.70;2.70;;;;;;;28.94;57.60;99950.48;681561;1265;139345;-76
2023/08/04 16:15:34;;;;;;;4.00;2.40;;;;;;;28.68;58.58;99970.43;681367;1265;137811;-76
2023/08/04 16:30:38;;;;;;;3.10;2.60;;;;;;;28.63;59.12;99973.36;681271;1262;138588;-76
2023/08/04 16:45:42;;;;;;;6.20;3.10;;;;;;;28.61;58.78;99970.48;681445;1264;139257;-76
2023/08/04 17:00:46;;;;;;;6.60;3.70;;;;;;;28.61;59.21;99977.73;681242;1265;140957;-76
2023/08/04 17:15:50;;;;;;;6.90;3.10;;;;;;;28.68;59.46;99976.03;681501;1265;138348;-76
2023/08/04 17:31:04;;;;;;;10.80;6.40;;;;;;;28.43;60.19;99986.41;681158;1264;139627;-75
2023/08/04 17:46:08;;;;;;;12.80;8.00;;;;;;;28.00;60.85;99994.79;681138;1265;139437;-76
2023/08/04 18:01:12;;;;;;;12.50;5.40;;;;;;;27.49;62.65;100008.33;681066;1265;139821;-75
2023/08/04 18:16:16;;;;;;;8.40;4.40;;;;;;;27.35;63.19;100026.27;681170;1265;139675;-76
2023/08/04 18:31:21;;;;;;;17.10;7.60;;;;;;;26.86;64.52;100048.37;680726;1266;139226;-76
2023/08/04 18:46:26;;;;;;;24.00;10.50;;;;;;;26.37;66.05;100064.44;680969;1262;139345;-78
2023/08/04 19:01:34;;;;;;;38.50;17.20;;;;;;;26.02;67.26;100082.59;680891;1265;139754;-75
2023/08/04 19:16:45;;;;;;;6.90;4.00;;;;;;;26.08;67.82;100085.38;680976;1265;140421;-77
2023/08/04 19:31:53;;;;;;;20.50;9.90;;;;;;;25.62;68.97;100093.27;680913;1265;139439;-76
2023/08/04 19:46:58;;;;;;;71.00;23.10;;;;;;;25.26;70.22;100111.73;680668;1265;139327;-76
2023/08/04 20:02:03;;;;;;;9.50;5.70;;;;;;;24.99;71.65;100124.17;681132;1265;139149;-77
2023/08/04 20:17:10;;;;;;;10.50;6.00;;;;;;;25.25;70.83;100152.13;681045;1267;139642;-76
2023/08/04 20:32:17;;;;;;;15.50;9.70;;;;;;;25.07;71.29;100154.45;681600;1265;138831;-77
2023/08/04 20:47:27;;;;;;;11.50;7.50;;;;;;;24.61;72.50;100155.70;681481;1266;139210;-78
2023/08/04 21:02:36;;;;;;;10.70;5.60;;;;;;;24.03;74.43;100173.17;681522;1265;139852;-77
2023/08/04 21:17:48;;;;;;;13.10;5.80;;;;;;;23.91;74.74;100185.89;681601;1265;138629;-76
2023/08/04 21:32:55;;;;;;;9.10;4.50;;;;;;;23.33;75.44;100185.41;681666;1265;138752;-76
2023/08/04 21:48:00;;;;;;;11.10;5.10;;;;;;;22.84;77.24;100183.64;681509;1265;138733;-76
2023/08/04 22:03:08;;;;;;;18.20;7.00;;;;;;;23.08;77.23;100184.18;681796;1265;138790;-76
2023/08/04 22:18:13;;;;;;;24.80;12.50;;;;;;;23.25;77.63;100189.59;681686;1265;138515;-75
2023/08/04 22:33:19;;;;;;;11.10;5.30;;;;;;;23.28;77.77;100199.88;681772;1265;139549;-76
2023/08/04 22:48:23;;;;;;;12.40;6.80;;;;;;;23.12;77.65;100199.08;681778;1265;139864;-75
2023/08/04 23:03:27;;;;;;;10.60;6.40;;;;;;;23.69;76.97;100201.03;681825;1265;138449;-74
2023/08/04 23:18:32;;;;;;;7.40;5.30;;;;;;;23.33;77.16;100209.13;681455;1262;138873;-76
2023/08/04 23:33:36;;;;;;;23.60;10.20;;;;;;;23.11;78.88;100220.86;681820;1262;138153;-78
2023/08/04 23:48:46;;;;;;;11.70;7.80;;;;;;;23.10;79.97;100225.64;681703;1273;138942;-74
